Time;durP1;ratioP1;P1;durP2;ratioP2;P2;SDS_P1;SDS_P2;PMS_P1;PMS_P2;Temp;Humidity;BMP_temperature;BMP_pressure;BME280_temperature;BME280_humidity;BME280_pressure;Samples;Min_cycle;Max_cycle;Signal;HPM_P1;HPM_P2
2021/06/13 00:07:46;;;;;;;5.60;3.90;;;;;;;11.34;79.07;99237.04;515796;1087;115528;-59
2021/06/13 00:17:53;;;;;;;7.85;3.50;;;;;;;11.20;79.12;99245.09;514573;1087;116599;-60
2021/06/13 00:27:59;;;;;;;5.67;3.33;;;;;;;11.09;78.61;99243.22;523048;1088;116383;-60
2021/06/13 00:38:07;;;;;;;5.80;3.70;;;;;;;10.98;79.17;99259.77;532528;1086;116423;-58
2021/06/13 00:48:13;;;;;;;7.33;3.17;;;;;;;10.89;79.32;99255.16;531461;1087;116582;-59
2021/06/13 00:58:19;;;;;;;5.27;3.07;;;;;;;10.78;79.22;99255.91;532518;1087;116365;-59
2021/06/13 01:08:38;;;;;;;6.83;3.40;;;;;;;10.68;79.38;99265.37;530562;1088;115913;-58
2021/06/13 01:18:48;;;;;;;6.10;3.00;;;;;;;10.59;78.99;99253.73;517719;1087;116794;-59
2021/06/13 01:29:03;;;;;;;5.47;3.33;;;;;;;10.49;79.11;99250.91;532555;1088;117001;-59
2021/06/13 01:39:17;;;;;;;5.57;3.97;;;;;;;10.38;79.13;99241.97;528981;1088;116918;-59
2021/06/13 01:49:25;;;;;;;5.77;3.20;;;;;;;10.28;79.46;99248.78;532569;1087;116233;-58
2021/06/13 01:59:33;;;;;;;10.53;4.47;;;;;;;10.20;79.87;99258.95;531871;1088;115951;-61
2021/06/13 02:09:41;;;;;;;7.57;4.73;;;;;;;10.14;80.21;99256.77;526018;1088;116516;-59
2021/06/13 02:19:49;;;;;;;9.40;4.33;;;;;;;10.07;80.64;99267.66;523083;1087;116585;-58
2021/06/13 02:29:56;;;;;;;6.93;3.63;;;;;;;10.06;80.98;99276.47;522361;1087;116190;-59
2021/06/13 02:40:02;;;;;;;4.68;3.38;;;;;;;10.10;80.96;99295.48;532594;1086;116799;-63
2021/06/13 02:50:11;;;;;;;5.77;4.03;;;;;;;10.32;81.09;99305.35;526106;1088;115572;-58
2021/06/13 03:00:19;;;;;;;8.83;3.83;;;;;;;11.72;80.16;99303.55;524849;1089;117109;-58
2021/06/13 03:10:29;;;;;;;3.67;3.00;;;;;;;13.12;76.80;99323.78;527645;1087;116737;-59
2021/06/13 03:20:36;;;;;;;4.70;2.65;;;;;;;13.13;74.99;99342.13;522822;1087;116601;-58
2021/06/13 03:30:42;;;;;;;4.55;2.70;;;;;;;12.96;73.24;99343.45;516181;1089;116665;-60
2021/06/13 03:40:49;;;;;;;4.23;2.23;;;;;;;12.22;73.57;99359.59;532515;1087;116613;-58
2021/06/13 03:50:58;;;;;;;10.28;3.48;;;;;;;11.78;74.06;99384.63;531776;1087;116412;-61
2021/06/13 04:01:04;;;;;;;4.33;2.13;;;;;;;11.74;73.99;99391.06;530448;1087;116617;-59
2021/06/13 04:11:12;;;;;;;5.10;2.83;;;;;;;11.85;73.83;99390.28;514765;1088;116331;-58
2021/06/13 04:21:20;;;;;;;3.15;2.25;;;;;;;13.77;72.21;99396.95;531855;1087;116752;-60
2021/06/13 04:31:29;;;;;;;6.50;2.53;;;;;;;20.68;66.40;99394.88;532612;1087;116129;-60
2021/06/13 04:41:35;;;;;;;2.43;1.40;;;;;;;23.95;54.32;99409.92;531905;1087;116794;-61
2021/06/13 04:51:46;;;;;;;3.83;2.23;;;;;;;25.28;52.05;99408.48;515823;1087;116769;-58
2021/06/13 05:01:53;;;;;;;4.80;1.73;;;;;;;24.31;45.15;99409.05;532583;1086;116278;-61
2021/06/13 05:11:59;;;;;;;3.37;1.67;;;;;;;20.26;47.63;99420.73;531892;1087;116651;-60
2021/06/13 05:22:09;;;;;;;3.73;1.77;;;;;;;21.07;46.55;99420.02;516649;1088;116795;-61
2021/06/13 05:32:15;;;;;;;3.97;2.20;;;;;;;18.68;49.12;99435.20;532558;1089;117319;-60
2021/06/13 05:42:21;;;;;;;5.83;1.88;;;;;;;19.72;50.00;99450.41;531845;1087;117223;-59
2021/06/13 05:52:28;;;;;;;2.50;1.60;;;;;;;20.26;47.38;99459.91;532606;1086;116071;-59
2021/06/13 06:02:34;;;;;;;7.33;2.07;;;;;;;17.27;50.14;99462.09;531800;1085;116789;-58
2021/06/13 06:12:42;;;;;;;6.23;1.70;;;;;;;15.53;53.07;99481.09;520309;1085;116622;-60
2021/06/13 06:22:48;;;;;;;;;;;;;;;15.77;54.69;99495.81;531268;1087;116620;-60
2021/06/13 06:32:55;;;;;;;3.20;2.10;;;;;;;14.64;55.84;99499.03;529749;1087;102850;-59
2021/06/13 06:43:02;;;;;;;2.73;1.97;;;;;;;14.65;56.77;99515.73;532519;1088;116207;-59
2021/06/13 06:53:08;;;;;;;4.43;2.03;;;;;;;16.19;55.29;99527.42;532646;1087;117194;-59
2021/06/13 07:03:15;;;;;;;5.33;2.20;;;;;;;16.79;55.16;99520.36;531102;1087;117088;-59
2021/06/13 07:13:22;;;;;;;6.23;2.33;;;;;;;16.15;53.54;99528.68;523585;1087;10113555;-59
2021/06/13 07:23:28;;;;;;;5.33;1.77;;;;;;;16.86;52.37;99531.24;532472;1087;116700;-58
2021/06/13 07:33:38;;;;;;;6.67;3.23;;;;;;;18.28;50.98;99532.19;532453;1085;117054;-58
2021/06/13 07:43:45;;;;;;;4.50;1.73;;;;;;;16.97;51.24;99541.70;532473;1087;117637;-59
2021/06/13 07:53:51;;;;;;;6.17;2.17;;;;;;;17.14;51.52;99563.20;529432;1087;116600;-60
2021/06/13 08:03:59;;;;;;;8.17;2.37;;;;;;;16.45;52.31;99571.13;532522;1087;116344;-60
2021/06/13 08:14:05;;;;;;;6.13;1.90;;;;;;;17.25;51.71;99573.66;532509;1089;116864;-61
2021/06/13 08:24:12;;;;;;;6.10;1.80;;;;;;;17.64;49.78;99575.39;531638;1088;116665;-62
2021/06/13 08:34:19;;;;;;;4.67;2.60;;;;;;;17.88;49.93;99592.63;532408;1089;117214;-62
2021/06/13 08:44:26;;;;;;;2.23;1.67;;;;;;;17.34;50.71;99606.48;530670;1089;118228;-62
2021/06/13 08:54:59;;;;;;;2.05;1.88;;;;;;;17.35;50.09;99621.42;523878;1088;116698;-61
2021/06/13 09:05:07;;;;;;;5.50;2.50;;;;;;;16.78;50.86;99617.61;507777;1089;10001578;-62
2021/06/13 09:15:16;;;;;;;4.45;2.08;;;;;;;16.87;50.88;99628.38;531822;1087;117034;-61
2021/06/13 09:25:22;;;;;;;4.20;2.00;;;;;;;17.18;50.48;99642.38;532447;1088;116099;-61
2021/06/13 09:35:30;;;;;;;5.33;2.97;;;;;;;17.07;50.00;99656.63;532342;1090;115623;-61
2021/06/13 09:45:36;;;;;;;5.83;2.07;;;;;;;16.72;49.96;99652.65;532436;1088;116732;-61
2021/06/13 09:55:43;;;;;;;6.77;3.17;;;;;;;17.18;50.24;99657.47;532539;1090;116579;-61
2021/06/13 10:05:58;;;;;;;5.23;1.63;;;;;;;17.50;48.87;99664.30;531813;1088;117311;-60
2021/06/13 10:16:05;;;;;;;4.47;1.90;;;;;;;18.04;48.32;99666.42;532523;1088;116209;-59
2021/06/13 10:26:11;;;;;;;5.93;1.77;;;;;;;18.06;47.66;99673.28;532566;1090;116022;-59
2021/06/13 10:36:18;;;;;;;5.63;2.70;;;;;;;17.98;47.07;99669.65;525844;1089;116512;-59
2021/06/13 10:46:29;;;;;;;5.07;2.10;;;;;;;18.00;47.64;99680.96;525544;1088;116119;-59
2021/06/13 10:56:36;;;;;;;6.47;1.83;;;;;;;18.56;46.08;99676.55;524691;1089;116734;-59
2021/06/13 11:06:48;;;;;;;3.20;1.73;;;;;;;19.28;45.82;99697.11;521474;1088;116580;-59
2021/06/13 11:16:55;;;;;;;5.37;1.53;;;;;;;19.22;44.62;99696.89;532598;1089;116224;-61
2021/06/13 11:27:06;;;;;;;2.70;1.87;;;;;;;19.90;45.00;99703.42;531797;1088;116960;-61
2021/06/13 11:37:24;;;;;;;6.35;1.63;;;;;;;19.59;44.30;99709.18;532554;1088;115930;-60
2021/06/13 11:47:33;;;;;;;;;;;;;;;19.23;44.81;99722.52;532528;1089;116801;-60
2021/06/13 11:57:40;;;;;;;6.90;1.60;;;;;;;19.27;43.89;99723.88;519373;1089;102628;-59
2021/06/13 12:07:51;;;;;;;9.93;1.93;;;;;;;19.29;43.56;99725.41;523802;1087;116257;-60
2021/06/13 12:17:58;;;;;;;2.30;1.48;;;;;;;19.31;44.22;99723.42;531854;1087;116911;-60
2021/06/13 12:28:06;;;;;;;5.57;1.93;;;;;;;19.85;42.67;99735.00;528557;1087;116044;-59
2021/06/13 12:38:16;;;;;;;3.03;1.68;;;;;;;19.50;42.98;99734.06;519642;1087;116215;-60
2021/06/13 12:48:23;;;;;;;2.67;1.50;;;;;;;19.39;42.10;99732.48;524802;1089;117720;-59
2021/06/13 12:58:34;;;;;;;3.33;1.30;;;;;;;19.23;42.10;99742.00;528800;1089;116780;-60
2021/06/13 13:08:45;;;;;;;2.23;1.37;;;;;;;18.90;43.49;99736.29;531829;1088;116251;-59
2021/06/13 13:18:52;;;;;;;5.53;2.17;;;;;;;19.06;42.57;99727.69;519198;1088;116287;-60
2021/06/13 13:28:59;;;;;;;7.20;1.73;;;;;;;19.21;43.24;99735.96;514952;1087;116712;-60
2021/06/13 13:39:21;;;;;;;3.08;1.38;;;;;;;19.44;41.77;99719.53;525709;1088;116957;-61
2021/06/13 13:49:28;;;;;;;7.97;1.93;;;;;;;19.36;42.15;99738.13;532516;1088;116760;-62
2021/06/13 13:59:37;;;;;;;5.17;1.90;;;;;;;19.27;41.51;99737.19;531824;1089;116653;-60
2021/06/13 14:09:45;;;;;;;3.27;1.37;;;;;;;18.85;41.53;99730.56;528840;1086;117372;-60
2021/06/13 14:19:51;;;;;;;5.63;1.53;;;;;;;18.94;41.33;99726.20;525544;1087;116617;-61
2021/06/13 14:29:58;;;;;;;6.03;1.48;;;;;;;18.70;41.78;99735.53;525617;1089;116774;-59
2021/06/13 14:40:06;;;;;;;6.07;1.57;;;;;;;18.71;42.41;99745.22;530932;1090;118086;-59
2021/06/13 14:50:14;;;;;;;7.90;1.50;;;;;;;18.51;41.43;99739.98;532562;1087;116541;-60
2021/06/13 15:00:22;;;;;;;2.03;1.00;;;;;;;18.88;42.25;99747.07;531769;1089;116785;-59
2021/06/13 15:10:29;;;;;;;3.45;1.30;;;;;;;18.76;41.99;99741.13;532498;1089;116398;-60
2021/06/13 15:20:36;;;;;;;4.07;1.40;;;;;;;19.20;42.15;99758.25;531766;1088;117661;-58
2021/06/13 15:30:42;;;;;;;6.90;1.43;;;;;;;19.23;41.25;99749.13;532567;1087;116386;-59
2021/06/13 15:40:50;;;;;;;7.70;1.23;;;;;;;18.96;41.46;99770.27;514454;1087;10001669;-58
2021/06/13 15:50:56;;;;;;;17.05;2.25;;;;;;;18.88;41.51;99775.52;531707;1088;117983;-58
2021/06/13 16:01:04;;;;;;;2.85;0.98;;;;;;;18.85;41.81;99766.00;529940;1087;116233;-59
2021/06/13 16:11:09;;;;;;;;;;;;;;;18.84;41.58;99777.63;529894;1088;116446;-60
2021/06/13 16:21:17;;;;;;;3.93;1.40;;;;;;;18.89;42.30;99780.67;528758;1087;103959;-60
2021/06/13 16:31:24;;;;;;;3.70;1.10;;;;;;;18.71;42.49;99777.95;532636;1087;116339;-60
2021/06/13 16:41:31;;;;;;;4.30;1.10;;;;;;;18.78;43.14;99790.68;532570;1089;118172;-60
2021/06/13 16:51:37;;;;;;;3.63;1.30;;;;;;;18.41;43.64;99787.88;529297;1088;116338;-61
2021/06/13 17:01:44;;;;;;;3.63;1.20;;;;;;;18.41;43.96;99809.14;527231;1088;117401;-62
2021/06/13 17:11:51;;;;;;;6.13;2.17;;;;;;;18.09;44.74;99820.95;525452;1088;116353;-61
2021/06/13 17:22:17;;;;;;;6.87;2.30;;;;;;;18.10;44.73;99830.59;532585;1087;116460;-61
2021/06/13 17:32:24;;;;;;;6.13;1.50;;;;;;;17.68;45.81;99834.35;523441;1089;116501;-60
2021/06/13 17:42:31;;;;;;;3.30;1.77;;;;;;;17.45;46.51;99841.70;528095;1087;168380;-61
2021/06/13 17:52:38;;;;;;;4.23;1.83;;;;;;;17.58;46.87;99860.05;532552;1087;117251;-60
2021/06/13 18:02:45;;;;;;;3.70;0.80;;;;;;;17.25;46.93;99876.16;531855;1087;116403;-60
2021/06/13 18:12:52;;;;;;;5.50;2.63;;;;;;;16.81;47.67;99885.18;520727;1087;115830;-62
2021/06/13 18:22:58;;;;;;;8.17;2.00;;;;;;;16.72;47.75;99888.62;531192;1087;116582;-62
2021/06/13 18:33:06;;;;;;;8.03;1.87;;;;;;;16.43;47.88;99897.21;515044;1087;117630;-60
2021/06/13 18:43:14;;;;;;;3.43;1.10;;;;;;;16.19;48.46;99913.36;514606;1089;10001760;-60
2021/06/13 18:53:21;;;;;;;3.78;1.33;;;;;;;16.03;49.07;99919.08;523714;1087;116639;-59
2021/06/13 19:03:28;;;;;;;4.50;2.03;;;;;;;15.76;49.91;99942.34;520962;1086;117260;-60
2021/06/13 19:13:36;;;;;;;4.63;2.03;;;;;;;15.59;50.63;99948.16;532423;1088;116586;-60
2021/06/13 19:23:43;;;;;;;4.83;1.40;;;;;;;15.46;50.78;99975.56;526925;1088;122038;-61
2021/06/13 19:33:49;;;;;;;4.47;1.33;;;;;;;15.31;51.07;99982.07;527238;1087;116092;-60
2021/06/13 19:43:56;;;;;;;5.70;2.40;;;;;;;15.10;51.53;99993.34;515806;1087;117392;-61
2021/06/13 19:54:02;;;;;;;3.40;1.53;;;;;;;14.95;51.72;100008.61;525304;1088;116865;-60
2021/06/13 20:04:09;;;;;;;4.07;1.27;;;;;;;14.82;52.08;100006.03;532477;1087;117117;-60
2021/06/13 20:14:16;;;;;;;3.10;1.77;;;;;;;14.65;52.50;100004.63;532526;1088;117355;-61
2021/06/13 20:24:22;;;;;;;4.57;1.63;;;;;;;14.45;53.21;100014.04;531688;1087;117251;-60
2021/06/13 20:34:29;;;;;;;4.40;1.70;;;;;;;14.27;53.71;100024.98;531969;1085;117650;-60
2021/06/13 20:44:36;;;;;;;3.13;1.37;;;;;;;13.95;54.08;100042.20;514574;1090;116793;-60
2021/06/13 20:54:42;;;;;;;4.10;1.40;;;;;;;13.64;54.97;100046.16;515366;1089;117189;-61
2021/06/13 21:04:49;;;;;;;6.07;1.83;;;;;;;13.38;55.42;100048.76;514491;1087;116131;-59
2021/06/13 21:14:56;;;;;;;4.00;1.87;;;;;;;13.22;56.44;100055.09;525262;1087;117554;-59
2021/06/13 21:25:03;;;;;;;2.83;1.30;;;;;;;13.01;56.63;100058.22;532512;1087;116337;-58
2021/06/13 21:35:11;;;;;;;3.23;1.40;;;;;;;12.86;57.20;100072.42;532515;1087;116231;-58
2021/06/13 21:45:16;;;;;;;;;;;;;;;12.73;57.79;100075.87;531826;1087;116885;-58
2021/06/13 21:55:23;;;;;;;3.57;1.60;;;;;;;12.58;57.95;100085.61;532653;1087;102831;-58
2021/06/13 22:05:32;;;;;;;2.90;1.63;;;;;;;12.41;58.33;100091.96;532459;1087;116221;-58
2021/06/13 22:15:39;;;;;;;4.07;1.27;;;;;;;12.23;59.43;100083.45;532445;1088;116520;-58
2021/06/13 22:25:46;;;;;;;5.77;1.97;;;;;;;12.07;59.12;100095.89;532475;1087;116441;-60
2021/06/13 22:35:55;;;;;;;2.93;1.70;;;;;;;11.85;59.80;100103.28;513879;1088;117504;-59
2021/06/13 22:46:03;;;;;;;1.50;1.08;;;;;;;11.63;60.34;100111.64;532449;1089;116879;-59
2021/06/13 22:56:10;;;;;;;4.13;1.53;;;;;;;11.46;60.62;100110.02;528651;1087;117066;-59
2021/06/13 23:06:17;;;;;;;5.63;1.97;;;;;;;11.30;61.23;100107.45;531742;1089;116412;-59
2021/06/13 23:16:24;;;;;;;6.20;1.97;;;;;;;11.17;61.51;100115.20;525928;1089;116205;-59
2021/06/13 23:26:31;;;;;;;2.63;1.60;;;;;;;10.99;62.02;100110.09;521378;1088;116493;-59
2021/06/13 23:36:38;;;;;;;4.25;1.68;;;;;;;10.82;62.57;100103.17;521775;1087;116149;-58
2021/06/13 23:46:44;;;;;;;5.73;2.80;;;;;;;10.70;62.96;100109.95;524795;1087;116944;-59
2021/06/13 23:56:50;;;;;;;4.47;2.23;;;;;;;10.53;63.35;100099.56;525803;1089;117275;-58
